createdAt,value
2018-05-24T00:00:01.248Z,13.5
2018-05-24T00:05:01.346Z,13.5
2018-05-24T00:10:01.871Z,13.4
2018-05-24T00:15:02.028Z,13.4
2018-05-24T00:20:01.859Z,13.4
2018-05-24T00:25:01.802Z,13.4
2018-05-24T00:30:01.304Z,13.3
2018-05-24T00:35:01.859Z,13.3
2018-05-24T00:40:01.589Z,13.3
2018-05-24T00:45:01.347Z,13.3
2018-05-24T00:50:01.303Z,13.2
2018-05-24T00:55:02.286Z,13.2
2018-05-24T01:00:01.200Z,13.2
2018-05-24T01:05:02.013Z,13.2
2018-05-24T01:10:02.435Z,13.2
2018-05-24T01:15:01.872Z,13.2
2018-05-24T01:20:01.810Z,13.2
2018-05-24T01:25:01.865Z,13.1
2018-05-24T01:30:02.196Z,13.1
2018-05-24T01:35:01.861Z,13
2018-05-24T01:40:01.988Z,13
2018-05-24T01:45:01.416Z,12.9
2018-05-24T01:50:01.541Z,12.9
2018-05-24T01:55:01.304Z,12.8
2018-05-24T02:00:01.950Z,12.8
2018-05-24T02:05:02.395Z,12.8
2018-05-24T02:10:01.523Z,12.8
2018-05-24T02:15:02.212Z,12.8
2018-05-24T02:20:01.343Z,12.8
2018-05-24T02:25:02.141Z,12.7
2018-05-24T02:30:01.376Z,12.7
2018-05-24T02:35:01.918Z,12.7
2018-05-24T02:40:01.733Z,12.7
2018-05-24T02:45:01.907Z,12.6
2018-05-24T02:50:02.154Z,12.6
2018-05-24T02:55:01.991Z,12.5
2018-05-24T03:00:01.415Z,12.6
2018-05-24T03:05:02.260Z,12.6
2018-05-24T03:10:01.955Z,12.6
2018-05-24T03:15:01.878Z,12.6
2018-05-24T03:20:01.337Z,12.6
2018-05-24T03:25:02.055Z,12.6
2018-05-24T03:30:01.592Z,12.6
2018-05-24T03:35:02.047Z,12.7
2018-05-24T03:40:02.487Z,12.8
2018-05-24T03:45:01.506Z,12.8
2018-05-24T03:50:01.437Z,12.8
2018-05-24T03:55:01.867Z,12.9
2018-05-24T04:00:01.670Z,13
2018-05-24T04:05:01.390Z,13.1
2018-05-24T04:10:01.664Z,13.2
2018-05-24T04:15:02.012Z,13.3
2018-05-24T04:20:02.154Z,13.4
2018-05-24T04:25:02.166Z,13.5
2018-05-24T04:30:01.502Z,14.1
2018-05-24T04:35:02.498Z,15.1
2018-05-24T04:40:01.475Z,16.6
2018-05-24T04:45:01.698Z,17.2
2018-05-24T04:50:01.818Z,17.1
2018-05-24T04:55:02.407Z,17.1
2018-05-24T05:00:01.831Z,16.8
2018-05-24T05:05:01.572Z,16.5
2018-05-24T05:10:01.693Z,16.4
2018-05-24T05:15:02.296Z,16.2
2018-05-24T05:20:02.106Z,16.2
2018-05-24T05:25:01.983Z,16.2
2018-05-24T05:30:01.662Z,16.2
2018-05-24T05:35:01.685Z,16.2
2018-05-24T05:40:01.432Z,16.3
2018-05-24T05:45:01.573Z,16.5
2018-05-24T05:50:01.784Z,16.5
2018-05-24T05:55:01.879Z,16.7
2018-05-24T06:00:01.384Z,16.9
2018-05-24T06:05:01.770Z,17
2018-05-24T06:10:01.365Z,17.2
2018-05-24T06:15:01.324Z,17.3
2018-05-24T06:20:02.468Z,17.3
2018-05-24T06:25:01.482Z,17.5
2018-05-24T06:30:02.028Z,17.6
2018-05-24T06:35:01.524Z,17.9
2018-05-24T06:40:01.749Z,18
2018-05-24T06:45:01.242Z,18.2
2018-05-24T06:50:02.233Z,18.3
2018-05-24T06:55:01.449Z,18.5
2018-05-24T07:00:02.248Z,18.5
2018-05-24T07:05:02.073Z,18.7
2018-05-24T07:10:01.628Z,18.8
2018-05-24T07:15:01.936Z,18.8
2018-05-24T07:20:01.700Z,19.1
2018-05-24T07:25:01.757Z,19.5
2018-05-24T07:30:01.566Z,19.6
2018-05-24T07:35:01.686Z,19.8
2018-05-24T07:40:01.511Z,19.9
2018-05-24T07:45:01.585Z,20.1
2018-05-24T07:50:01.802Z,20.6
2018-05-24T07:55:01.463Z,20.8
2018-05-24T08:00:01.301Z,20.9
2018-05-24T08:05:01.872Z,21.4
2018-05-24T08:10:01.656Z,21.6
2018-05-24T08:15:01.736Z,21.9
2018-05-24T08:20:01.970Z,21.8
2018-05-24T08:25:01.327Z,21.9
2018-05-24T08:30:01.401Z,22.1
2018-05-24T08:35:02.623Z,22.2
2018-05-24T08:40:01.441Z,22.3
2018-05-24T08:45:01.253Z,22.5
2018-05-24T08:50:01.748Z,22.5
2018-05-24T08:55:02.302Z,22.7
2018-05-24T09:00:01.588Z,22.9
2018-05-24T09:05:02.100Z,22.7
2018-05-24T09:10:01.617Z,22.8
2018-05-24T09:15:02.213Z,23
2018-05-24T09:20:01.556Z,23.1
2018-05-24T09:25:01.785Z,23.2
2018-05-24T09:30:01.243Z,23.7
2018-05-24T09:35:01.999Z,23.7
2018-05-24T09:40:01.354Z,24.4
2018-05-24T09:45:01.480Z,24.3
2018-05-24T09:50:01.613Z,24.3
2018-05-24T09:55:02.141Z,24.5
2018-05-24T10:00:01.671Z,24.4
2018-05-24T10:05:02.357Z,24.9
2018-05-24T10:10:02.049Z,24.6
2018-05-24T10:15:01.617Z,24.6
2018-05-24T10:20:01.266Z,24.7
2018-05-24T10:25:01.940Z,24.7
2018-05-24T10:30:01.737Z,24.7
2018-05-24T10:35:01.467Z,25
2018-05-24T10:40:01.541Z,25.3
2018-05-24T10:45:02.082Z,25.6
2018-05-24T10:50:01.286Z,25.7
2018-05-24T10:55:01.999Z,25.5
2018-05-24T11:00:01.458Z,25.6
2018-05-24T11:05:01.915Z,25.2
2018-05-24T11:10:02.327Z,24.9
2018-05-24T11:15:01.214Z,24.9
2018-05-24T11:20:01.260Z,25.2
2018-05-24T11:25:02.271Z,25.5
2018-05-24T11:30:01.601Z,25.6
2018-05-24T11:35:01.306Z,25.3
2018-05-24T11:40:01.242Z,25.2
2018-05-24T11:45:02.403Z,25.2
2018-05-24T11:50:01.170Z,25.5
2018-05-24T11:55:01.417Z,25.5
2018-05-24T12:00:01.611Z,25.6
2018-05-24T12:05:01.352Z,25.6
2018-05-24T12:10:01.466Z,25.6
2018-05-24T12:15:01.346Z,25.7
2018-05-24T12:20:01.560Z,25.7
2018-05-24T12:25:01.729Z,25.7
2018-05-24T12:30:01.671Z,25.6
2018-05-24T12:35:02.164Z,26
2018-05-24T12:40:01.890Z,25.8
2018-05-24T12:45:02.164Z,25.8
2018-05-24T12:50:01.963Z,25.9
2018-05-24T12:55:01.705Z,25.7
2018-05-24T13:00:01.550Z,25.7
2018-05-24T13:05:02.186Z,25.7
2018-05-24T13:10:01.693Z,25.8
2018-05-24T13:15:02.277Z,25.7
2018-05-24T13:20:01.676Z,26
2018-05-24T13:25:01.528Z,26.1
2018-05-24T13:30:02.003Z,25.8
2018-05-24T13:35:02.195Z,26
2018-05-24T13:40:02.131Z,26.1
2018-05-24T13:45:01.848Z,26
2018-05-24T13:50:01.665Z,25.7
2018-05-24T13:55:02.198Z,25.7
2018-05-24T14:00:02.031Z,25.5
2018-05-24T14:05:01.795Z,25.3
2018-05-24T14:10:01.281Z,25.3
2018-05-24T14:15:02.549Z,25.6
2018-05-24T14:20:01.282Z,25.6
2018-05-24T14:25:01.383Z,25.6
2018-05-24T14:30:01.951Z,25.6
2018-05-24T14:35:01.880Z,25.5
2018-05-24T14:40:01.367Z,25.3
2018-05-24T14:45:02.006Z,25.3
2018-05-24T14:50:02.561Z,25.7
2018-05-24T14:55:01.286Z,25.6
2018-05-24T15:00:01.428Z,25.4
2018-05-24T15:05:01.547Z,25.3
2018-05-24T15:10:01.720Z,25.1
2018-05-24T15:15:02.053Z,25
2018-05-24T15:20:01.844Z,24.7
2018-05-24T15:25:01.816Z,24.4
2018-05-24T15:30:01.297Z,24.7
2018-05-24T15:35:02.047Z,24.7
2018-05-24T15:40:02.075Z,24.5
2018-05-24T15:45:02.174Z,24.3
2018-05-24T15:50:01.399Z,24
2018-05-24T15:55:02.165Z,24.1
2018-05-24T16:00:01.156Z,23.9
2018-05-24T16:05:01.377Z,23.5
2018-05-24T16:10:01.849Z,23.7
2018-05-24T16:15:02.242Z,23.6
2018-05-24T16:20:02.031Z,23.6
2018-05-24T16:25:01.352Z,23
2018-05-24T16:30:02.021Z,22.9
2018-05-24T16:35:01.802Z,22.2
2018-05-24T16:40:01.433Z,22.1
2018-05-24T16:45:01.215Z,21.6
2018-05-24T16:50:01.697Z,21.2
2018-05-24T16:55:02.088Z,21
2018-05-24T17:00:01.407Z,20.8
2018-05-24T17:05:01.698Z,20.6
2018-05-24T17:10:01.423Z,20.4
2018-05-24T17:15:01.786Z,19.9
2018-05-24T17:20:02.562Z,20.1
2018-05-24T17:25:01.982Z,20
2018-05-24T17:30:01.202Z,19.9
2018-05-24T17:35:01.565Z,17.8
2018-05-24T17:40:02.104Z,16.7
2018-05-24T17:45:01.643Z,15.7
2018-05-24T17:50:01.979Z,15.4
2018-05-24T17:55:01.313Z,15.2
2018-05-24T18:00:01.817Z,15.1
2018-05-24T18:05:01.859Z,14.9
2018-05-24T18:10:02.323Z,15
2018-05-24T18:15:02.601Z,15.6
2018-05-24T18:20:02.252Z,15.7
2018-05-24T18:25:01.755Z,16
2018-05-24T18:30:01.921Z,16
2018-05-24T18:35:02.103Z,16.1
2018-05-24T18:40:01.730Z,16.2
2018-05-24T18:45:01.834Z,16.1
2018-05-24T18:50:01.411Z,16.2
2018-05-24T18:55:01.655Z,16.2
2018-05-24T19:00:01.239Z,16.1
2018-05-24T19:05:01.423Z,16.2
2018-05-24T19:10:01.829Z,16.1
2018-05-24T19:15:01.977Z,16.1
2018-05-24T19:20:02.757Z,16.1
2018-05-24T19:25:01.521Z,16
2018-05-24T19:30:01.526Z,16
2018-05-24T19:35:01.852Z,16
2018-05-24T19:40:02.051Z,15.9
2018-05-24T19:45:01.888Z,15.9
2018-05-24T19:50:01.680Z,15.8
2018-05-24T19:55:01.939Z,15.8
2018-05-24T20:00:01.920Z,15.7
2018-05-24T20:05:01.464Z,15.7
2018-05-24T20:10:01.904Z,15.7
2018-05-24T20:15:01.728Z,15.6
2018-05-24T20:20:01.777Z,15.6
2018-05-24T20:25:01.342Z,15.6
2018-05-24T20:30:01.901Z,15.5
2018-05-24T20:35:01.521Z,15.5
2018-05-24T20:40:01.885Z,15.5
2018-05-24T20:45:01.581Z,15.5
2018-05-24T20:50:01.376Z,15.5
2018-05-24T20:55:02.098Z,15.5
2018-05-24T21:00:01.893Z,15.4
2018-05-24T21:05:01.741Z,15.4
2018-05-24T21:10:02.332Z,15.4
2018-05-24T21:15:01.416Z,15.4
2018-05-24T21:20:01.914Z,15.3
2018-05-24T21:25:01.407Z,15.3
2018-05-24T21:30:01.622Z,15.2
2018-05-24T21:35:02.178Z,15.2
2018-05-24T21:40:02.545Z,15.2
2018-05-24T21:45:01.751Z,15.1
2018-05-24T21:50:01.882Z,15.1
2018-05-24T21:55:02.255Z,15
2018-05-24T22:00:01.655Z,15
2018-05-24T22:05:02.209Z,15
2018-05-24T22:10:01.531Z,15
2018-05-24T22:15:02.488Z,15.1
2018-05-24T22:20:02.151Z,15
2018-05-24T22:25:02.125Z,15
2018-05-24T22:30:01.467Z,14.9
2018-05-24T22:35:01.685Z,14.9
2018-05-24T22:40:02.097Z,14.9
2018-05-24T22:45:01.215Z,14.7
2018-05-24T22:50:01.841Z,14.7
2018-05-24T22:55:01.792Z,14.7
2018-05-24T23:00:01.589Z,14.6
2018-05-24T23:05:02.218Z,14.6
2018-05-24T23:10:01.970Z,14.6
2018-05-24T23:15:01.663Z,14.5
2018-05-24T23:20:01.231Z,14.5
2018-05-24T23:25:01.753Z,14.4
2018-05-24T23:30:01.786Z,14.3
2018-05-24T23:35:01.649Z,14.2
2018-05-24T23:40:02.044Z,14.2
2018-05-24T23:45:01.346Z,14.2
2018-05-24T23:50:01.576Z,14.1
2018-05-24T23:55:01.597Z,14.1
